Time;durP1;ratioP1;P1;durP2;ratioP2;P2;SDS_P1;SDS_P2;PMS_P1;PMS_P2;Temp;Humidity;BMP_temperature;BMP_pressure;BME280_temperature;BME280_humidity;BME280_pressure;Samples;Min_cycle;Max_cycle;Signal;HPM_P1;HPM_P2
2023/02/06 00:01:19;;;;;;;23.67;12.75;;;;;;;1.86;100.00;103323.72;5047187;28;20040;-77
2023/02/06 00:03:45;;;;;;;28.95;12.45;;;;;;;1.88;100.00;103316.06;5053285;22;20469;-77
2023/02/06 00:06:12;;;;;;;23.83;12.23;;;;;;;1.88;100.00;103323.81;5029590;28;20055;-78
2023/02/06 00:08:38;;;;;;;26.88;12.50;;;;;;;1.83;100.00;103320.94;5039678;28;20042;-77
2023/02/06 00:11:11;;;;;;;24.05;13.90;;;;;;;1.80;100.00;103328.47;5028161;28;20465;-77
2023/02/06 00:13:38;;;;;;;24.48;13.35;;;;;;;1.76;100.00;103317.03;5012631;23;20673;-77
2023/02/06 00:16:08;;;;;;;24.55;11.50;;;;;;;1.65;100.00;103318.84;5014149;28;20542;-78
2023/02/06 00:18:34;;;;;;;21.83;11.18;;;;;;;1.46;100.00;103323.47;5027959;28;20140;-77
2023/02/06 00:21:01;;;;;;;24.05;11.35;;;;;;;1.35;100.00;103317.56;5027536;28;20511;-77
2023/02/06 00:25:55;;;;;;;28.58;11.88;;;;;;;1.48;100.00;103317.63;5068045;28;20041;-78
2023/02/06 00:28:22;;;;;;;25.90;13.65;;;;;;;1.55;100.00;103312.91;5070366;28;20067;-77
2023/02/06 00:30:48;;;;;;;30.05;14.07;;;;;;;1.59;100.00;103317.50;5081272;28;20044;-80
2023/02/06 00:33:15;;;;;;;31.77;14.30;;;;;;;1.59;100.00;103325.25;5081842;28;20223;-78
2023/02/06 00:35:41;;;;;;;28.27;14.85;;;;;;;1.63;100.00;103325.59;5061414;28;20053;-78
2023/02/06 00:38:11;;;;;;;26.10;14.60;;;;;;;1.67;100.00;103316.38;5078698;28;20049;-79
2023/02/06 00:40:38;;;;;;;26.48;14.20;;;;;;;1.69;100.00;103314.78;5077021;28;20040;-79
2023/02/06 00:43:04;;;;;;;26.55;14.32;;;;;;;1.72;100.00;103312.44;5073152;28;20048;-77
2023/02/06 00:45:31;;;;;;;31.90;15.75;;;;;;;1.73;100.00;103313.31;5089867;28;20044;-78
2023/02/06 00:47:57;;;;;;;27.00;13.32;;;;;;;1.72;100.00;103311.53;5055530;28;20175;-79
2023/02/06 00:50:24;;;;;;;36.10;17.50;;;;;;;1.70;100.00;103311.41;5062605;28;20151;-78
2023/02/06 00:52:50;;;;;;;30.73;15.07;;;;;;;1.70;100.00;103307.97;5071897;28;20048;-79
2023/02/06 00:55:17;;;;;;;35.63;15.45;;;;;;;1.70;100.00;103306.25;5070077;28;20076;-78
2023/02/06 00:57:43;;;;;;;36.78;16.58;;;;;;;1.66;100.00;103314.59;5068108;28;20437;-79
2023/02/06 01:00:11;;;;;;;33.67;15.30;;;;;;;1.68;100.00;103314.69;5077898;28;20048;-78
2023/02/06 01:02:37;;;;;;;28.83;15.40;;;;;;;1.66;100.00;103317.16;5071652;28;20052;-78
2023/02/06 01:05:04;;;;;;;32.45;15.60;;;;;;;1.65;100.00;103312.78;5070108;28;20040;-78
2023/02/06 01:07:31;;;;;;;36.22;17.20;;;;;;;1.65;100.00;103315.38;5061497;28;20071;-80
2023/02/06 01:09:57;;;;;;;31.58;16.95;;;;;;;1.64;100.00;103311.91;5067582;28;20056;-79
2023/02/06 01:12:24;;;;;;;35.35;17.23;;;;;;;1.63;100.00;103317.84;5071134;28;20045;-80
2023/02/06 01:14:50;;;;;;;30.15;15.98;;;;;;;1.64;100.00;103323.88;5086911;23;20055;-79
2023/02/06 01:17:17;;;;;;;37.22;18.33;;;;;;;1.67;100.00;103321.53;5078054;28;20456;-82
2023/02/06 01:19:43;;;;;;;34.70;18.25;;;;;;;1.69;100.00;103337.13;5087759;28;20699;-79
2023/02/06 01:22:09;;;;;;;30.67;16.10;;;;;;;1.68;100.00;103333.66;5088818;28;20069;-77
2023/02/06 01:24:36;;;;;;;35.60;17.80;;;;;;;1.69;100.00;103331.97;5097078;22;20053;-77
2023/02/06 01:27:02;;;;;;;35.70;16.73;;;;;;;1.68;100.00;103340.50;5069853;28;20048;-78
2023/02/06 01:29:29;;;;;;;32.00;18.08;;;;;;;1.65;100.00;103334.31;5044270;28;20495;-81
2023/02/06 01:31:55;;;;;;;33.03;17.08;;;;;;;1.66;100.00;103335.25;5049928;28;20080;-80
2023/02/06 01:34:22;;;;;;;34.03;17.25;;;;;;;1.65;100.00;103325.69;5049385;28;20042;-78
2023/02/06 01:36:48;;;;;;;26.08;15.13;;;;;;;1.65;100.00;103320.53;5053788;28;20803;-78
2023/02/06 01:39:15;;;;;;;28.08;16.17;;;;;;;1.68;100.00;103325.91;5064335;28;20052;-81
2023/02/06 01:41:41;;;;;;;28.77;16.02;;;;;;;1.65;100.00;103320.53;5048724;28;20052;-80
2023/02/06 01:44:14;;;;;;;32.80;17.70;;;;;;;1.63;100.00;103323.00;5046458;28;20052;-78
2023/02/06 01:46:50;;;;;;;34.13;19.20;;;;;;;1.60;100.00;103311.56;5050400;28;20124;-81
2023/02/06 01:49:46;;;;;;;30.92;16.83;;;;;;;1.56;100.00;103310.44;5028740;28;20049;-79
2023/02/06 01:52:22;;;;;;;32.70;16.77;;;;;;;1.52;100.00;103323.03;5047562;28;20419;-79
2023/02/06 01:54:54;;;;;;;27.33;14.45;;;;;;;1.45;100.00;103322.59;5034175;28;20052;-78
2023/02/06 01:57:20;;;;;;;25.25;13.50;;;;;;;1.36;100.00;103318.47;5060503;28;20045;-80
2023/02/06 01:59:53;;;;;;;24.23;13.45;;;;;;;1.26;100.00;103322.94;5047311;28;20126;-77
2023/02/06 02:02:22;;;;;;;25.60;13.43;;;;;;;1.18;100.00;103321.50;5064232;28;20037;-78
2023/02/06 02:04:49;;;;;;;22.73;12.35;;;;;;;1.09;100.00;103324.28;5044338;28;20044;-79
2023/02/06 02:07:23;;;;;;;28.40;13.55;;;;;;;1.04;100.00;103327.34;5041123;28;20041;-79
2023/02/06 02:09:50;;;;;;;27.50;13.95;;;;;;;0.99;100.00;103332.16;5050083;28;20037;-78
2023/02/06 02:12:16;;;;;;;25.23;13.20;;;;;;;0.95;100.00;103337.88;5043815;28;20045;-78
2023/02/06 02:14:45;;;;;;;24.83;12.05;;;;;;;0.96;100.00;103332.81;5039208;28;20510;-78
2023/02/06 02:17:46;;;;;;;24.27;13.32;;;;;;;0.97;100.00;103344.03;5049301;28;20488;-78
2023/02/06 02:20:45;;;;;;;30.88;14.32;;;;;;;0.96;100.00;103340.56;5045608;28;20044;-77
2023/02/06 02:23:43;;;;;;;27.70;13.07;;;;;;;0.97;100.00;103332.03;5031162;28;20131;-80
2023/02/06 02:26:46;;;;;;;24.33;14.23;;;;;;;0.99;100.00;103345.03;5028388;28;20108;-80
2023/02/06 02:29:48;;;;;;;25.17;14.98;;;;;;;1.01;100.00;103351.22;5041406;28;20127;-77
2023/02/06 02:32:50;;;;;;;28.02;14.30;;;;;;;1.01;100.00;103350.34;5029320;28;20041;-80
2023/02/06 02:35:36;;;;;;;28.60;12.73;;;;;;;1.05;100.00;103349.78;5027826;28;20486;-80
2023/02/06 02:38:43;;;;;;;28.73;14.25;;;;;;;1.07;100.00;103341.38;5005608;28;20070;-78
2023/02/06 02:41:25;;;;;;;28.15;13.13;;;;;;;1.04;100.00;103350.56;5029196;28;20120;-83
2023/02/06 02:44:10;;;;;;;33.28;14.73;;;;;;;0.93;100.00;103342.03;5026885;28;20045;-79
2023/02/06 02:46:41;;;;;;;24.77;12.07;;;;;;;0.81;100.00;103337.75;5029558;28;20049;-80
2023/02/06 02:49:17;;;;;;;24.65;13.63;;;;;;;0.73;100.00;103335.38;5020563;28;20037;-78
2023/02/06 02:51:45;;;;;;;25.17;12.77;;;;;;;0.64;100.00;103336.50;5034461;28;20053;-77
2023/02/06 02:54:12;;;;;;;26.17;13.82;;;;;;;0.58;100.00;103341.19;5010216;28;20042;-78
2023/02/06 02:56:39;;;;;;;29.08;14.60;;;;;;;0.58;100.00;103338.59;5029142;28;20041;-77
2023/02/06 02:59:16;;;;;;;23.55;14.63;;;;;;;0.57;100.00;103339.38;5040734;28;20060;-81
2023/02/06 03:01:51;;;;;;;27.40;14.15;;;;;;;0.56;100.00;103339.25;5034035;28;20037;-77
2023/02/06 03:04:27;;;;;;;22.88;13.43;;;;;;;0.58;100.00;103340.28;5028242;28;20119;-78
2023/02/06 03:07:06;;;;;;;24.95;13.63;;;;;;;0.60;100.00;103349.03;5011494;28;20045;-76
2023/02/06 03:10:19;;;;;;;27.92;13.20;;;;;;;0.59;100.00;103353.28;5037921;28;20046;-78
2023/02/06 03:13:26;;;;;;;25.08;13.38;;;;;;;0.58;100.00;103363.50;5030961;28;20049;-77
2023/02/06 03:16:12;;;;;;;31.42;15.02;;;;;;;0.56;100.00;103359.88;5040969;28;20527;-79
2023/02/06 03:19:11;;;;;;;23.85;11.73;;;;;;;0.52;100.00;103350.13;5022439;28;20543;-77
2023/02/06 03:21:40;;;;;;;25.98;13.00;;;;;;;0.48;100.00;103344.75;5004833;28;20058;-78
2023/02/06 03:24:22;;;;;;;28.55;14.07;;;;;;;0.48;100.00;103339.59;5026097;28;20676;-79
2023/02/06 03:26:54;;;;;;;27.88;14.57;;;;;;;0.49;100.00;103336.22;5027410;28;20046;-79
2023/02/06 03:29:20;;;;;;;25.00;14.52;;;;;;;0.52;100.00;103342.41;5029553;28;20042;-79
2023/02/06 03:32:05;;;;;;;28.10;14.32;;;;;;;0.53;100.00;103339.03;5025970;28;20053;-77
2023/02/06 03:34:54;;;;;;;25.63;13.70;;;;;;;0.58;100.00;103335.13;5059304;28;20065;-77
2023/02/06 03:37:23;;;;;;;27.25;14.05;;;;;;;0.58;100.00;103342.88;5058311;28;20045;-79
2023/02/06 03:39:49;;;;;;;24.88;13.32;;;;;;;0.54;100.00;103346.88;5046473;28;20096;-80
2023/02/06 03:42:17;;;;;;;22.55;12.40;;;;;;;0.50;100.00;103347.44;5009203;28;20038;-77
2023/02/06 03:44:51;;;;;;;26.13;13.98;;;;;;;0.43;100.00;103343.50;5011905;28;20049;-78
2023/02/06 03:47:20;;;;;;;26.98;15.57;;;;;;;0.30;100.00;103328.78;5027918;28;20103;-81
2023/02/06 03:49:52;;;;;;;26.02;13.18;;;;;;;0.26;100.00;103331.00;5021825;28;20052;-75
2023/02/06 03:52:24;;;;;;;29.50;14.15;;;;;;;0.26;100.00;103329.34;5021829;28;20042;-78
2023/02/06 03:55:03;;;;;;;24.73;13.55;;;;;;;0.28;100.00;103339.75;5033296;28;20399;-77
2023/02/06 03:57:32;;;;;;;28.67;14.20;;;;;;;0.27;100.00;103323.38;5022974;28;20054;-78
2023/02/06 03:59:59;;;;;;;22.73;13.50;;;;;;;0.29;100.00;103315.78;5042684;28;20710;-80
2023/02/06 04:02:35;;;;;;;23.95;14.57;;;;;;;0.32;100.00;103316.00;5002959;28;20050;-79
2023/02/06 04:05:01;;;;;;;31.00;14.80;;;;;;;0.33;100.00;103321.28;5039198;28;20045;-77
2023/02/06 04:07:31;;;;;;;25.40;14.25;;;;;;;0.28;100.00;103321.72;5036709;28;20060;-82
2023/02/06 04:09:57;;;;;;;26.65;12.77;;;;;;;0.26;100.00;103311.31;5036743;28;20060;-79
2023/02/06 04:12:24;;;;;;;23.63;12.77;;;;;;;0.20;100.00;103307.38;5027802;28;20096;-78
2023/02/06 04:14:52;;;;;;;26.67;12.60;;;;;;;0.12;100.00;103297.38;5032876;28;20037;-77
2023/02/06 04:17:19;;;;;;;32.63;13.85;;;;;;;0.07;100.00;103292.66;5012264;28;20687;-78
2023/02/06 04:19:45;;;;;;;27.30;13.60;;;;;;;0.04;100.00;103295.88;5030050;28;20099;-78
2023/02/06 04:22:14;;;;;;;21.02;12.48;;;;;;;0.04;100.00;103290.72;5024111;28;20046;-79
2023/02/06 04:24:41;;;;;;;26.13;11.70;;;;;;;0.02;100.00;103301.69;5044918;28;20068;-79
2023/02/06 04:27:09;;;;;;;25.42;12.57;;;;;;;-0.03;100.00;103294.53;5028480;28;20107;-81
2023/02/06 04:29:35;;;;;;;26.50;11.90;;;;;;;-0.03;100.00;103293.59;5031351;28;20056;-78
2023/02/06 04:32:02;;;;;;;26.30;13.15;;;;;;;-0.01;100.00;103302.38;5028211;28;20054;-82
2023/02/06 04:34:29;;;;;;;31.48;15.40;;;;;;;-0.08;100.00;103301.00;5013680;28;20440;-81
2023/02/06 04:36:56;;;;;;;23.88;12.23;;;;;;;-0.11;100.00;103302.44;5029638;28;20103;-77
2023/02/06 04:39:22;;;;;;;26.67;11.88;;;;;;;-0.11;100.00;103290.44;5032335;28;20037;-77
2023/02/06 04:41:49;;;;;;;21.75;12.35;;;;;;;-0.11;100.00;103295.59;5010638;28;20092;-80
2023/02/06 04:44:15;;;;;;;22.63;11.00;;;;;;;-0.12;100.00;103298.06;5022790;28;20161;-78
2023/02/06 04:46:43;;;;;;;20.20;10.77;;;;;;;-0.19;100.00;103287.25;5034214;28;20050;-78
2023/02/06 04:49:10;;;;;;;30.02;10.85;;;;;;;-0.25;100.00;103284.25;5024550;28;20127;-83
2023/02/06 04:51:37;;;;;;;25.52;10.65;;;;;;;-0.30;100.00;103282.06;5018639;28;20054;-78
2023/02/06 04:54:04;;;;;;;20.60;9.73;;;;;;;-0.31;100.00;103288.91;5039832;28;20055;-76
2023/02/06 04:56:31;;;;;;;22.83;9.60;;;;;;;-0.27;100.00;103293.50;5022375;28;20042;-77
2023/02/06 04:58:57;;;;;;;24.75;9.52;;;;;;;-0.24;100.00;103293.72;5023501;28;20042;-76
2023/02/06 05:01:24;;;;;;;26.08;13.35;;;;;;;-0.24;100.00;103287.69;5028644;28;20041;-76
2023/02/06 05:03:51;;;;;;;24.70;10.07;;;;;;;-0.28;100.00;103285.66;5021227;28;20050;-79
2023/02/06 05:06:18;;;;;;;27.40;11.70;;;;;;;-0.31;100.00;103283.75;5024603;28;20137;-81
2023/02/06 05:08:44;;;;;;;25.63;11.45;;;;;;;-0.31;100.00;103283.75;5024513;28;20044;-77
2023/02/06 05:11:11;;;;;;;23.02;10.25;;;;;;;-0.34;100.00;103291.22;5035812;28;20046;-76
2023/02/06 05:13:38;;;;;;;24.60;9.93;;;;;;;-0.37;100.00;103298.72;5026057;28;20057;-79
2023/02/06 05:16:10;;;;;;;24.15;10.32;;;;;;;-0.38;100.00;103305.53;5008873;28;20057;-81
2023/02/06 05:18:38;;;;;;;19.75;10.85;;;;;;;-0.39;100.00;103301.16;5029991;28;20128;-78
2023/02/06 05:21:06;;;;;;;26.63;10.65;;;;;;;-0.37;100.00;103298.72;5027707;28;20546;-77
2023/02/06 05:23:33;;;;;;;20.70;10.05;;;;;;;-0.42;100.00;103297.44;5030969;28;20041;-81
2023/02/06 05:26:00;;;;;;;24.55;9.23;;;;;;;-0.46;100.00;103286.00;5032308;28;20068;-82
2023/02/06 05:28:28;;;;;;;18.95;10.10;;;;;;;-0.52;100.00;103290.69;5041017;28;20053;-76
2023/02/06 05:30:55;;;;;;;18.98;9.68;;;;;;;-0.53;100.00;103300.06;5034653;28;20239;-76
2023/02/06 05:33:22;;;;;;;22.90;11.45;;;;;;;-0.49;100.00;103295.19;5028209;28;20042;-77
2023/02/06 05:35:48;;;;;;;27.67;13.30;;;;;;;-0.46;100.00;103296.31;5027862;28;20073;-76
2023/02/06 05:38:15;;;;;;;24.33;10.77;;;;;;;-0.41;100.00;103297.56;5022545;28;20029;-79
2023/02/06 05:40:41;;;;;;;24.08;10.60;;;;;;;-0.36;100.00;103297.94;5031606;28;20041;-80
2023/02/06 05:43:08;;;;;;;23.13;11.98;;;;;;;-0.30;100.00;103310.38;5029126;28;20045;-80
2023/02/06 05:45:35;;;;;;;24.45;10.95;;;;;;;-0.31;100.00;103309.50;5028287;28;20045;-84
2023/02/06 05:48:02;;;;;;;24.30;11.48;;;;;;;-0.25;100.00;103319.34;5043476;28;20045;-79
2023/02/06 05:50:28;;;;;;;23.05;11.55;;;;;;;-0.21;100.00;103318.81;5036916;28;20091;-79
2023/02/06 05:52:54;;;;;;;23.50;11.02;;;;;;;-0.23;100.00;103317.81;5035292;28;20041;-77
2023/02/06 05:55:21;;;;;;;27.92;12.27;;;;;;;-0.21;100.00;103321.38;5026227;28;20041;-76
2023/02/06 05:57:50;;;;;;;24.75;10.77;;;;;;;-0.21;100.00;103319.72;5022771;28;20040;-76
2023/02/06 06:03:36;;;;;;;21.60;10.02;;;;;;;-0.23;100.00;103318.69;4994440;28;20052;-78
2023/02/06 06:06:02;;;;;;;24.50;11.07;;;;;;;-0.29;100.00;103314.75;5048744;28;20829;-82
2023/02/06 06:08:29;;;;;;;26.13;10.95;;;;;;;-0.39;100.00;103314.03;5034018;28;20049;-78
2023/02/06 06:10:55;;;;;;;26.30;10.75;;;;;;;-0.46;100.00;103313.44;5033392;28;20049;-78
2023/02/06 06:13:24;;;;;;;26.15;12.48;;;;;;;-0.50;100.00;103330.28;5030488;28;20033;-76
2023/02/06 06:15:52;;;;;;;23.35;10.70;;;;;;;-0.57;100.00;103328.91;5028303;28;20041;-77
2023/02/06 06:18:22;;;;;;;28.20;10.88;;;;;;;-0.59;100.00;103329.56;5030061;28;20048;-76
2023/02/06 06:20:49;;;;;;;23.17;10.13;;;;;;;-0.60;100.00;103335.47;5026927;28;20037;-77
2023/02/06 06:23:16;;;;;;;21.58;10.73;;;;;;;-0.54;100.00;103325.69;5021509;28;20469;-80
2023/02/06 06:25:42;;;;;;;25.17;12.40;;;;;;;-0.52;100.00;103330.19;5025379;28;20492;-76
2023/02/06 06:28:09;;;;;;;22.63;9.63;;;;;;;-0.59;100.00;103333.03;5022810;28;20061;-82
2023/02/06 06:30:36;;;;;;;21.25;9.50;;;;;;;-0.62;100.00;103332.78;5026569;28;20037;-78
2023/02/06 06:33:02;;;;;;;23.38;9.90;;;;;;;-0.65;100.00;103336.78;5023606;28;20096;-76
2023/02/06 06:35:29;;;;;;;33.72;13.13;;;;;;;-0.66;100.00;103335.91;5029020;28;20046;-76
2023/02/06 06:37:55;;;;;;;23.42;10.93;;;;;;;-0.69;100.00;103345.94;5034433;28;20057;-78
2023/02/06 06:40:22;;;;;;;26.30;10.18;;;;;;;-0.72;100.00;103353.41;5045620;28;20033;-75
2023/02/06 06:42:48;;;;;;;24.77;9.88;;;;;;;-0.73;100.00;103360.22;5012656;28;20048;-76
2023/02/06 06:45:15;;;;;;;22.63;9.60;;;;;;;-0.72;100.00;103354.31;5031418;28;20072;-78
2023/02/06 06:47:41;;;;;;;24.88;11.05;;;;;;;-0.70;100.00;103362.16;5021771;28;20041;-75
2023/02/06 06:50:08;;;;;;;25.98;9.38;;;;;;;-0.70;100.00;103372.44;5022068;28;20042;-78
2023/02/06 06:52:35;;;;;;;20.08;10.85;;;;;;;-0.70;100.00;103375.00;5041777;28;20530;-82
2023/02/06 06:55:01;;;;;;;22.52;10.07;;;;;;;-0.68;100.00;103383.75;5034401;28;20042;-76
2023/02/06 06:57:31;;;;;;;30.23;10.35;;;;;;;-0.67;100.00;103377.81;5041654;28;20066;-75
2023/02/06 06:59:58;;;;;;;30.90;11.80;;;;;;;-0.68;100.00;103376.03;5040711;28;20096;-75
2023/02/06 07:02:24;;;;;;;22.05;10.57;;;;;;;-0.69;100.00;103379.41;5034906;28;20045;-76
2023/02/06 07:04:51;;;;;;;23.63;10.55;;;;;;;-0.69;100.00;103372.56;5034543;28;20049;-76
2023/02/06 07:07:17;;;;;;;28.20;11.48;;;;;;;-0.65;100.00;103367.66;5030488;28;20149;-77
2023/02/06 07:09:44;;;;;;;24.75;10.23;;;;;;;-0.65;100.00;103362.50;5030312;28;20052;-77
2023/02/06 07:12:10;;;;;;;26.25;11.07;;;;;;;-0.69;100.00;103363.97;5041763;28;20038;-78
2023/02/06 07:14:36;;;;;;;26.35;9.93;;;;;;;-0.68;100.00;103364.06;5030375;28;20173;-76
2023/02/06 07:17:03;;;;;;;27.02;10.77;;;;;;;-0.68;100.00;103360.59;5019132;28;20485;-75
2023/02/06 07:19:29;;;;;;;28.35;11.38;;;;;;;-0.62;100.00;103365.34;5051988;28;20116;-79
2023/02/06 07:21:56;;;;;;;28.17;11.48;;;;;;;-0.59;100.00;103366.47;5034691;28;20048;-78
2023/02/06 07:24:22;;;;;;;26.40;12.30;;;;;;;-0.51;100.00;103378.31;5034225;28;20374;-77
2023/02/06 07:26:49;;;;;;;26.83;13.48;;;;;;;-0.43;100.00;103373.78;5036551;28;20041;-75
2023/02/06 07:29:15;;;;;;;33.92;11.70;;;;;;;-0.39;100.00;103378.38;5032361;28;20460;-76
2023/02/06 07:31:41;;;;;;;24.30;10.98;;;;;;;-0.37;100.00;103381.06;5023437;28;20499;-77
2023/02/06 07:34:08;;;;;;;24.38;10.30;;;;;;;-0.37;100.00;103384.53;5050282;28;20053;-77
2023/02/06 07:36:34;;;;;;;35.90;13.00;;;;;;;-0.31;100.00;103385.78;5031898;28;20471;-75
2023/02/06 07:39:03;;;;;;;21.10;10.00;;;;;;;-0.27;100.00;103383.59;5030612;28;20107;-78
2023/02/06 07:41:30;;;;;;;21.20;9.45;;;;;;;-0.30;100.00;103383.38;5036700;28;20045;-76
2023/02/06 07:43:56;;;;;;;33.38;11.40;;;;;;;-0.30;100.00;103385.03;5031526;28;20049;-77
2023/02/06 07:46:22;;;;;;;20.92;9.77;;;;;;;-0.34;100.00;103377.06;5015715;28;20431;-78
2023/02/06 07:48:49;;;;;;;32.55;11.43;;;;;;;-0.35;100.00;103382.09;5050507;28;20038;-76
2023/02/06 07:51:15;;;;;;;25.63;11.48;;;;;;;-0.31;100.00;103383.22;5033131;28;20050;-76
2023/02/06 07:53:42;;;;;;;27.27;10.45;;;;;;;-0.23;100.00;103392.47;5013736;28;20391;-77
2023/02/06 07:56:16;;;;;;;23.40;10.38;;;;;;;-0.27;100.00;103399.06;5024361;28;20053;-79
2023/02/06 07:58:43;;;;;;;24.80;10.88;;;;;;;-0.23;100.00;103395.94;5034409;28;20038;-77
2023/02/06 08:01:10;;;;;;;29.92;11.95;;;;;;;-0.19;100.00;103386.78;5036191;28;20124;-77
2023/02/06 08:03:36;;;;;;;28.75;12.85;;;;;;;-0.05;100.00;103381.03;5037685;28;20068;-77
2023/02/06 08:06:13;;;;;;;27.30;11.48;;;;;;;-0.01;100.00;103388.22;5044147;28;20046;-82
2023/02/06 08:08:54;;;;;;;24.48;11.40;;;;;;;-0.06;100.00;103386.97;5018910;28;20057;-76
2023/02/06 08:11:35;;;;;;;41.80;12.88;;;;;;;-0.09;100.00;103390.97;5041170;28;20113;-78
2023/02/06 08:14:05;;;;;;;24.98;11.52;;;;;;;-0.01;100.00;103388.22;5010247;28;20054;-77
2023/02/06 08:16:42;;;;;;;29.02;13.80;;;;;;;0.08;100.00;103382.91;5040733;28;20045;-77
2023/02/06 08:19:09;;;;;;;25.83;11.77;;;;;;;0.15;100.00;103385.16;5014404;28;20059;-79
2023/02/06 08:21:36;;;;;;;30.48;10.43;;;;;;;0.19;100.00;103388.00;5024348;28;20167;-79
2023/02/06 08:24:03;;;;;;;26.15;11.15;;;;;;;0.26;100.00;103382.53;5031332;28;20041;-77
2023/02/06 08:26:30;;;;;;;22.63;10.48;;;;;;;0.43;100.00;103394.13;5032049;28;20061;-78
2023/02/06 08:28:58;;;;;;;25.20;11.73;;;;;;;0.46;100.00;103387.53;5021627;28;20046;-77
2023/02/06 08:31:31;;;;;;;25.45;12.35;;;;;;;0.43;100.00;103381.25;5038673;28;20096;-77
2023/02/06 08:33:57;;;;;;;33.30;10.77;;;;;;;0.49;100.00;103379.16;5024820;28;20076;-76
2023/02/06 08:36:25;;;;;;;26.45;11.98;;;;;;;0.54;100.00;103375.25;5045676;28;20068;-77
2023/02/06 08:38:53;;;;;;;21.80;9.80;;;;;;;0.69;100.00;103379.75;5032616;28;20128;-78
2023/02/06 08:41:32;;;;;;;24.65;12.10;;;;;;;0.87;100.00;103375.97;5044241;28;20049;-77
2023/02/06 08:44:01;;;;;;;25.45;11.30;;;;;;;1.04;100.00;103376.34;5027712;28;20045;-77
2023/02/06 08:46:30;;;;;;;26.13;9.75;;;;;;;1.12;100.00;103383.88;5043050;28;20460;-77
2023/02/06 08:49:04;;;;;;;29.30;10.45;;;;;;;1.15;100.00;103373.78;5042288;28;20057;-81
2023/02/06 08:51:31;;;;;;;23.30;10.93;;;;;;;1.24;100.00;103367.47;5039877;28;20120;-77
2023/02/06 08:54:04;;;;;;;26.33;10.77;;;;;;;1.35;100.00;103370.88;5034542;28;20472;-79
2023/02/06 08:56:33;;;;;;;42.42;12.52;;;;;;;1.51;100.00;103370.28;5023262;28;20111;-76
2023/02/06 08:59:00;;;;;;;26.55;10.18;;;;;;;1.58;100.00;103360.50;5022131;28;20055;-77
2023/02/06 09:01:29;;;;;;;24.50;10.68;;;;;;;1.65;100.00;103351.50;5012256;28;20534;-78
2023/02/06 09:03:58;;;;;;;26.88;12.55;;;;;;;1.71;100.00;103356.22;5028454;28;20076;-81
2023/02/06 09:06:26;;;;;;;22.48;10.73;;;;;;;1.70;100.00;103360.50;5019700;28;20484;-78
2023/02/06 09:08:53;;;;;;;22.85;10.73;;;;;;;1.74;100.00;103349.56;5020114;28;20072;-82
2023/02/06 09:11:22;;;;;;;31.70;11.60;;;;;;;1.77;100.00;103354.06;5033691;28;20421;-77
2023/02/06 09:13:50;;;;;;;27.05;11.75;;;;;;;1.88;100.00;103349.66;5016384;28;20042;-77
2023/02/06 09:16:19;;;;;;;34.33;13.27;;;;;;;1.80;100.00;103343.97;5031293;28;20042;-82
2023/02/06 09:18:47;;;;;;;22.63;11.05;;;;;;;1.84;100.00;103335.66;5011471;28;20172;-78
2023/02/06 09:21:24;;;;;;;26.70;10.88;;;;;;;1.89;100.00;103342.03;5010129;28;20060;-77
2023/02/06 09:23:57;;;;;;;22.42;10.00;;;;;;;2.02;100.00;103342.88;5026119;28;20052;-82
2023/02/06 09:26:28;;;;;;;30.15;11.23;;;;;;;2.26;100.00;103343.69;5009268;28;20053;-77
2023/02/06 09:29:00;;;;;;;27.98;11.98;;;;;;;2.61;100.00;103338.31;5025330;28;20057;-77
2023/02/06 09:31:30;;;;;;;22.80;11.75;;;;;;;2.77;100.00;103332.47;5026141;28;20053;-80
2023/02/06 09:33:57;;;;;;;27.33;12.52;;;;;;;2.69;100.00;103336.25;5039538;28;20137;-79
2023/02/06 09:36:24;;;;;;;27.45;12.13;;;;;;;2.63;100.00;103341.91;5028620;28;20127;-79
2023/02/06 09:38:56;;;;;;;25.25;12.35;;;;;;;2.47;100.00;103339.97;5022315;28;20499;-80
2023/02/06 09:41:45;;;;;;;27.35;13.07;;;;;;;2.33;100.00;103335.53;5041580;28;20050;-79
2023/02/06 09:44:27;;;;;;;25.77;12.20;;;;;;;2.34;100.00;103334.75;5007387;28;20070;-78
2023/02/06 09:47:04;;;;;;;38.10;13.70;;;;;;;2.29;100.00;103329.28;5030913;28;20703;-80
2023/02/06 09:49:46;;;;;;;33.90;12.95;;;;;;;2.19;100.00;103324.28;5027834;28;20420;-77
2023/02/06 09:52:30;;;;;;;23.45;11.75;;;;;;;2.22;100.00;103336.50;5036289;28;20045;-83
2023/02/06 09:55:08;;;;;;;28.30;12.07;;;;;;;2.25;100.00;103342.75;5023986;28;20041;-78
2023/02/06 09:57:46;;;;;;;31.60;11.15;;;;;;;2.31;100.00;103335.44;5019586;28;20046;-76
2023/02/06 10:00:28;;;;;;;30.85;12.20;;;;;;;2.42;100.00;103333.56;5025437;28;20055;-78
2023/02/06 10:03:39;;;;;;;26.05;12.57;;;;;;;2.64;100.00;103332.44;5022402;28;20042;-79
2023/02/06 10:06:18;;;;;;;26.52;12.48;;;;;;;2.79;100.00;103336.06;5045175;28;20055;-85
2023/02/06 10:09:08;;;;;;;28.67;10.20;;;;;;;2.99;100.00;103331.31;5022615;28;20033;-78
2023/02/06 10:11:41;;;;;;;25.45;11.57;;;;;;;3.13;100.00;103332.22;5028289;28;20053;-81
2023/02/06 10:14:21;;;;;;;21.58;11.88;;;;;;;3.25;100.00;103339.88;5035588;28;20033;-77
2023/02/06 10:17:03;;;;;;;25.95;10.85;;;;;;;3.42;100.00;103338.34;5016328;28;20141;-78
2023/02/06 10:19:51;;;;;;;29.05;13.70;;;;;;;3.54;100.00;103331.34;5030150;28;20042;-77
2023/02/06 10:22:28;;;;;;;18.25;10.45;;;;;;;3.60;100.00;103331.75;5039085;28;20454;-79
2023/02/06 10:25:15;;;;;;;26.50;11.77;;;;;;;3.76;100.00;103330.13;5040363;28;20060;-76
2023/02/06 10:27:45;;;;;;;26.95;12.57;;;;;;;3.89;98.41;103324.00;5023371;28;20046;-77
2023/02/06 10:30:40;;;;;;;20.75;10.88;;;;;;;3.94;97.83;103318.28;5020600;28;20045;-77
2023/02/06 10:33:25;;;;;;;29.25;12.35;;;;;;;3.95;97.45;103312.31;5023412;28;20730;-77
2023/02/06 10:36:01;;;;;;;28.70;11.85;;;;;;;4.06;97.43;103312.97;5021201;28;20049;-78
2023/02/06 10:38:50;;;;;;;22.98;9.65;;;;;;;4.16;96.06;103309.25;5019475;28;20041;-78
2023/02/06 10:41:43;;;;;;;23.85;9.82;;;;;;;4.14;95.69;103313.44;5027801;28;20389;-86
2023/02/06 10:44:34;;;;;;;23.98;10.30;;;;;;;4.19;96.17;103317.19;5032250;28;20041;-77
2023/02/06 10:47:01;;;;;;;19.10;9.93;;;;;;;4.21;95.07;103307.81;5041294;28;20457;-77
2023/02/06 10:49:50;;;;;;;24.15;11.02;;;;;;;4.09;95.18;103301.88;5022476;28;20753;-77
2023/02/06 10:52:27;;;;;;;21.90;10.93;;;;;;;4.13;96.59;103309.03;5019072;28;20057;-78
2023/02/06 10:54:59;;;;;;;19.85;9.23;;;;;;;4.08;95.73;103293.22;5025873;28;20128;-81
2023/02/06 10:57:28;;;;;;;21.35;8.80;;;;;;;3.92;95.48;103293.97;5014637;28;20130;-77
2023/02/06 11:00:01;;;;;;;21.67;9.18;;;;;;;3.66;96.89;103289.78;5039127;28;20069;-79
2023/02/06 11:02:55;;;;;;;23.85;9.48;;;;;;;3.35;98.13;103292.16;5020832;28;20086;-77
2023/02/06 11:05:29;;;;;;;22.15;8.55;;;;;;;3.17;99.20;103294.44;5019724;28;20050;-77
2023/02/06 11:08:09;;;;;;;;;;;;;;;3.06;100.00;103286.00;5024697;28;20673;-77
2023/02/06 11:10:36;;;;;;;19.83;8.90;;;;;;;3.06;100.00;103292.06;5027699;28;19928;-79
2023/02/06 11:13:12;;;;;;;21.92;9.50;;;;;;;3.10;100.00;103286.31;5040292;23;20079;-80
2023/02/06 11:15:48;;;;;;;16.75;8.32;;;;;;;3.29;100.00;103282.31;5035342;28;20045;-80
2023/02/06 11:18:20;;;;;;;16.27;8.00;;;;;;;3.44;100.00;103285.88;5035809;28;20427;-78
2023/02/06 11:20:49;;;;;;;19.27;8.98;;;;;;;3.60;99.78;103286.84;5031269;28;20053;-79
2023/02/06 11:23:23;;;;;;;25.35;9.73;;;;;;;3.67;97.22;103295.88;5027491;28;20066;-77
2023/02/06 11:26:12;;;;;;;22.13;10.05;;;;;;;3.82;98.25;103294.22;5026308;28;20057;-76
2023/02/06 11:29:08;;;;;;;19.77;7.55;;;;;;;4.06;95.48;103296.53;5020411;28;20071;-80
2023/02/06 11:31:42;;;;;;;17.23;7.70;;;;;;;4.10;93.96;103303.69;5023157;28;20784;-76
2023/02/06 11:34:50;;;;;;;16.95;9.40;;;;;;;4.12;94.31;103296.91;5001533;28;20046;-79
2023/02/06 11:37:38;;;;;;;16.75;7.93;;;;;;;4.26;93.25;103274.38;5014833;28;20038;-79